Sussex, Canada
Current Conditions -  °F | °C
As of 2:00 PM on Sunday 23 Nov 2014 (Local Time) from CYSJ Reporting Station
Broken Clouds Broken Clouds  
Wind Chill: 40°   Ceiling: 26000
Heat Index: 45°   Visibility: 15mi
Dew Point: 28°   Wind: 8mph
Humidity: 53%   Direction: 270°W
Pressure: 30.04"   Gusts: NA
Location:  45.72°N, 65.52°W
Report Text: CYSJ 231800Z 27007KT 15SM FEW040 BKN260 07/M02 A3004 RMK SC1CI5 SLP177
Loading
Personal Weather Stations






























Interactive Weather Map New forecast layout! Learn more

10-Day Weather Forecast

Advertisements
Track Severe Weather on mobile